Mollina, Spain

4:40 AM CEST on October 19, 2018 (GMT +0200)
Paseo de los Colegiales | | Change Station

Elev 1621 ft 37.02 °N, 4.57 °W | Updated 4 minutes ago

Clear
Clear
49.2 °F
Feels Like 49 °F
N
0.02
Wind Variable Wind from North
Gusts 0.4 mph

Today
High -- | Low -- °F
--% Chance of Precip.
Yesterday
High -- | Low -- °F
Precip. -- in
Pressure 29.83 in
Visibility -9999.0 miles
Clouds
Windchill 49 °F
Dew Point 49 °F
Humidity 100%
Rainfall 0.00 in
Snow Depth Not available.
8:29 AM 7:36 PM
Waxing Gibbous, 72% visible
METAR LEMG 190200Z 30006KT CAVOK 12/11 Q1010 NOSIG
Pressure 29.83 in
Visibility -9999.0 miles
Clouds
Windchill 49 °F
Dew Point 49 °F
Humidity 100%
Rainfall 0.00 in
Snow Depth Not available.
8:29 AM 7:36 PM
Waxing Gibbous, 72% visible
METAR LEMG 190200Z 30006KT CAVOK 12/11 Q1010 NOSIG

Get Severe Weather Alerts

Thanks for signing up!

Be on the lookout for a verification email in your inbox.

You'll start receiving the daily forecast at 6 AM.

×

10-Day Weather Forecast

×

Almanac

Astronomy

Oct. 19, 2018 Rise Set
Actual Time
Civil Twilight
Nautical Twilight
Astronomical Twilight
Moon
Length of Visible Light
Length of Day
Tomorrow will be .
, % of the Moon is Illuminated

Today's Extremes

Country Highs Country Lows

Community

WunderPhotos

Category 6

Welcome to Category 6. This is the collective home for Weather Underground's featured writeups by Dr. Jeff Masters (right), Bob Henson (left), Chris Burt, and other regular contributors.

Nearby

Air Quality

  Air Quality AQ Index Pollutant
Not available.

Snow Depth

Station Depth Elevation

Earthquake Activity

City Distance Mag. Time & Date
Minimum magnitude displayed is 2.5.

Coastal Water Temperatures

Place Temperature

Stations

Nearby Weather Stations

Station Location Temp. Windchill Dew Point Humidity Wind Precip. Elev Updated Type